sensor_id;sensor_type;location;lat;lon;timestamp;temperature;humidity
41324;DHT22;27073;51.128;4.220;2023-04-01T00:02:19;9.70;99.90
41324;DHT22;27073;51.128;4.220;2023-04-01T00:04:45;9.80;99.90
41324;DHT22;27073;51.128;4.220;2023-04-01T00:07:11;9.80;99.90
41324;DHT22;27073;51.128;4.220;2023-04-01T00:09:37;9.80;99.90
41324;DHT22;27073;51.128;4.220;2023-04-01T00:12:03;9.80;99.90
41324;DHT22;27073;51.128;4.220;2023-04-01T00:14:29;9.80;99.90
41324;DHT22;27073;51.128;4.220;2023-04-01T00:16:55;9.80;99.90
41324;DHT22;27073;51.128;4.220;2023-04-01T00:19:21;9.80;99.90
41324;DHT22;27073;51.128;4.220;2023-04-01T00:21:46;9.80;99.90
41324;DHT22;27073;51.128;4.220;2023-04-01T00:24:13;9.80;99.90
41324;DHT22;27073;51.128;4.220;2023-04-01T00:26:39;9.80;99.90
41324;DHT22;27073;51.128;4.220;2023-04-01T00:29:07;9.80;99.90
41324;DHT22;27073;51.128;4.220;2023-04-01T00:31:33;9.80;99.90
41324;DHT22;27073;51.128;4.220;2023-04-01T00:33:59;9.80;99.90
41324;DHT22;27073;51.128;4.220;2023-04-01T00:36:25;9.80;99.90
41324;DHT22;27073;51.128;4.220;2023-04-01T00:38:51;9.80;99.90
41324;DHT22;27073;51.128;4.220;2023-04-01T00:41:18;9.80;99.90
41324;DHT22;27073;51.128;4.220;2023-04-01T00:43:47;9.80;99.90
41324;DHT22;27073;51.128;4.220;2023-04-01T00:46:13;9.80;99.90
41324;DHT22;27073;51.128;4.220;2023-04-01T00:48:43;9.80;99.90
41324;DHT22;27073;51.128;4.220;2023-04-01T00:51:23;9.80;99.90
41324;DHT22;27073;51.128;4.220;2023-04-01T00:53:53;9.80;99.90
41324;DHT22;27073;51.128;4.220;2023-04-01T00:56:33;9.90;99.90
41324;DHT22;27073;51.128;4.220;2023-04-01T00:59:05;9.80;99.90
41324;DHT22;27073;51.128;4.220;2023-04-01T01:01:34;9.90;99.90
41324;DHT22;27073;51.128;4.220;2023-04-01T01:04:01;9.80;99.90
41324;DHT22;27073;51.128;4.220;2023-04-01T01:06:50;9.80;99.90
41324;DHT22;27073;51.128;4.220;2023-04-01T01:12:12;9.80;99.90
41324;DHT22;27073;51.128;4.220;2023-04-01T01:14:48;9.90;99.90
41324;DHT22;27073;51.128;4.220;2023-04-01T01:31:37;9.70;99.90
41324;DHT22;27073;51.128;4.220;2023-04-01T01:36:37;9.70;99.90
41324;DHT22;27073;51.128;4.220;2023-04-01T01:39:08;9.70;99.90
41324;DHT22;27073;51.128;4.220;2023-04-01T01:41:38;9.70;99.90
41324;DHT22;27073;51.128;4.220;2023-04-01T01:44:08;9.70;99.90
41324;DHT22;27073;51.128;4.220;2023-04-01T01:46:34;9.70;99.90
41324;DHT22;27073;51.128;4.220;2023-04-01T01:49:02;9.60;99.90
41324;DHT22;27073;51.128;4.220;2023-04-01T01:51:28;9.70;99.90
41324;DHT22;27073;51.128;4.220;2023-04-01T01:53:55;9.70;99.90
41324;DHT22;27073;51.128;4.220;2023-04-01T01:56:23;9.60;99.90
41324;DHT22;27073;51.128;4.220;2023-04-01T01:58:54;9.50;99.90
41324;DHT22;27073;51.128;4.220;2023-04-01T02:01:28;9.50;99.90
41324;DHT22;27073;51.128;4.220;2023-04-01T02:03:58;9.50;99.90
41324;DHT22;27073;51.128;4.220;2023-04-01T02:06:29;9.50;99.90
41324;DHT22;27073;51.128;4.220;2023-04-01T02:11:38;9.50;99.90
41324;DHT22;27073;51.128;4.220;2023-04-01T02:17:18;9.50;99.90
41324;DHT22;27073;51.128;4.220;2023-04-01T02:19:59;9.40;99.90
41324;DHT22;27073;51.128;4.220;2023-04-01T02:22:29;9.40;99.90
41324;DHT22;27073;51.128;4.220;2023-04-01T02:25:07;9.40;99.90
41324;DHT22;27073;51.128;4.220;2023-04-01T02:27:33;9.40;99.90
41324;DHT22;27073;51.128;4.220;2023-04-01T02:29:59;9.40;99.90
41324;DHT22;27073;51.128;4.220;2023-04-01T02:32:25;9.40;99.90
41324;DHT22;27073;51.128;4.220;2023-04-01T02:34:53;9.40;99.90
41324;DHT22;27073;51.128;4.220;2023-04-01T02:37:20;9.40;99.90
41324;DHT22;27073;51.128;4.220;2023-04-01T02:39:46;9.30;99.90
41324;DHT22;27073;51.128;4.220;2023-04-01T02:42:13;9.30;99.90
41324;DHT22;27073;51.128;4.220;2023-04-01T02:44:39;9.40;99.90
41324;DHT22;27073;51.128;4.220;2023-04-01T02:47:04;9.40;99.90
41324;DHT22;27073;51.128;4.220;2023-04-01T02:49:30;9.40;99.90
41324;DHT22;27073;51.128;4.220;2023-04-01T02:51:56;9.50;99.90
41324;DHT22;27073;51.128;4.220;2023-04-01T02:54:21;9.40;99.90
41324;DHT22;27073;51.128;4.220;2023-04-01T02:56:48;9.40;99.90
41324;DHT22;27073;51.128;4.220;2023-04-01T02:59:14;9.40;99.90
41324;DHT22;27073;51.128;4.220;2023-04-01T03:01:40;9.40;99.90
41324;DHT22;27073;51.128;4.220;2023-04-01T03:04:05;9.50;99.90
41324;DHT22;27073;51.128;4.220;2023-04-01T03:06:31;9.50;99.90
41324;DHT22;27073;51.128;4.220;2023-04-01T03:08:57;9.50;99.90
41324;DHT22;27073;51.128;4.220;2023-04-01T03:11:23;9.50;99.90
41324;DHT22;27073;51.128;4.220;2023-04-01T03:13:48;9.50;99.90
41324;DHT22;27073;51.128;4.220;2023-04-01T03:16:15;9.60;99.90
41324;DHT22;27073;51.128;4.220;2023-04-01T03:18:40;9.50;99.90
41324;DHT22;27073;51.128;4.220;2023-04-01T03:21:21;9.40;99.90
41324;DHT22;27073;51.128;4.220;2023-04-01T03:23:47;9.40;99.90
41324;DHT22;27073;51.128;4.220;2023-04-01T03:26:13;9.40;99.90
41324;DHT22;27073;51.128;4.220;2023-04-01T03:28:39;9.40;99.90
41324;DHT22;27073;51.128;4.220;2023-04-01T03:31:05;9.40;99.90
41324;DHT22;27073;51.128;4.220;2023-04-01T03:33:37;9.40;99.90
41324;DHT22;27073;51.128;4.220;2023-04-01T03:36:03;9.30;99.90
41324;DHT22;27073;51.128;4.220;2023-04-01T03:38:35;9.30;99.90
41324;DHT22;27073;51.128;4.220;2023-04-01T03:41:01;9.30;99.90
41324;DHT22;27073;51.128;4.220;2023-04-01T03:43:27;9.40;99.90
41324;DHT22;27073;51.128;4.220;2023-04-01T03:45:53;9.40;99.90
41324;DHT22;27073;51.128;4.220;2023-04-01T03:48:20;9.30;99.90
41324;DHT22;27073;51.128;4.220;2023-04-01T03:50:46;9.40;99.90
41324;DHT22;27073;51.128;4.220;2023-04-01T03:53:13;9.40;99.90
41324;DHT22;27073;51.128;4.220;2023-04-01T03:55:41;9.40;99.90
41324;DHT22;27073;51.128;4.220;2023-04-01T03:58:08;9.30;99.90
41324;DHT22;27073;51.128;4.220;2023-04-01T04:00:34;9.40;99.90
41324;DHT22;27073;51.128;4.220;2023-04-01T04:03:01;9.30;99.90
41324;DHT22;27073;51.128;4.220;2023-04-01T04:05:31;9.30;99.90
41324;DHT22;27073;51.128;4.220;2023-04-01T04:07:57;9.30;99.90
41324;DHT22;27073;51.128;4.220;2023-04-01T04:10:23;9.30;99.90
41324;DHT22;27073;51.128;4.220;2023-04-01T04:12:50;9.40;99.90
41324;DHT22;27073;51.128;4.220;2023-04-01T04:15:18;9.30;99.90
41324;DHT22;27073;51.128;4.220;2023-04-01T04:17:45;9.30;99.90
41324;DHT22;27073;51.128;4.220;2023-04-01T04:20:11;9.30;99.90
41324;DHT22;27073;51.128;4.220;2023-04-01T04:22:37;9.40;99.90
41324;DHT22;27073;51.128;4.220;2023-04-01T04:25:07;9.40;99.90
41324;DHT22;27073;51.128;4.220;2023-04-01T04:27:33;9.40;99.90
41324;DHT22;27073;51.128;4.220;2023-04-01T04:30:06;9.40;99.90
41324;DHT22;27073;51.128;4.220;2023-04-01T04:32:34;9.40;99.90
41324;DHT22;27073;51.128;4.220;2023-04-01T04:35:00;9.40;99.90
41324;DHT22;27073;51.128;4.220;2023-04-01T04:37:26;9.40;99.90
41324;DHT22;27073;51.128;4.220;2023-04-01T04:39:52;9.40;99.90
41324;DHT22;27073;51.128;4.220;2023-04-01T04:42:18;9.40;99.90
41324;DHT22;27073;51.128;4.220;2023-04-01T04:44:44;9.40;99.90
41324;DHT22;27073;51.128;4.220;2023-04-01T04:47:10;9.40;99.90
41324;DHT22;27073;51.128;4.220;2023-04-01T04:49:36;9.40;99.90
41324;DHT22;27073;51.128;4.220;2023-04-01T04:52:06;9.40;99.90
41324;DHT22;27073;51.128;4.220;2023-04-01T04:54:32;9.40;99.90
41324;DHT22;27073;51.128;4.220;2023-04-01T04:57:00;9.40;99.90
41324;DHT22;27073;51.128;4.220;2023-04-01T04:59:30;9.40;99.90
41324;DHT22;27073;51.128;4.220;2023-04-01T05:02:03;9.40;99.90
41324;DHT22;27073;51.128;4.220;2023-04-01T05:04:29;9.30;99.90
41324;DHT22;27073;51.128;4.220;2023-04-01T05:06:54;9.30;99.90
41324;DHT22;27073;51.128;4.220;2023-04-01T05:09:20;9.20;99.90
41324;DHT22;27073;51.128;4.220;2023-04-01T05:11:46;9.30;99.90
41324;DHT22;27073;51.128;4.220;2023-04-01T05:14:14;9.30;99.90
41324;DHT22;27073;51.128;4.220;2023-04-01T05:16:41;9.30;99.90
41324;DHT22;27073;51.128;4.220;2023-04-01T05:19:07;9.20;99.90
41324;DHT22;27073;51.128;4.220;2023-04-01T05:21:32;9.20;99.90
41324;DHT22;27073;51.128;4.220;2023-04-01T05:23:58;9.20;99.90
41324;DHT22;27073;51.128;4.220;2023-04-01T05:26:25;9.20;99.90
41324;DHT22;27073;51.128;4.220;2023-04-01T05:28:51;9.10;99.90
41324;DHT22;27073;51.128;4.220;2023-04-01T05:31:16;9.10;99.90
41324;DHT22;27073;51.128;4.220;2023-04-01T05:33:45;9.20;99.90
41324;DHT22;27073;51.128;4.220;2023-04-01T05:36:15;9.30;99.90
41324;DHT22;27073;51.128;4.220;2023-04-01T05:38:42;9.20;99.90
41324;DHT22;27073;51.128;4.220;2023-04-01T05:41:10;9.20;99.90
41324;DHT22;27073;51.128;4.220;2023-04-01T05:43:41;9.20;99.90
41324;DHT22;27073;51.128;4.220;2023-04-01T05:46:26;9.20;99.90
41324;DHT22;27073;51.128;4.220;2023-04-01T05:48:58;9.10;99.90
41324;DHT22;27073;51.128;4.220;2023-04-01T05:51:25;9.10;99.90
41324;DHT22;27073;51.128;4.220;2023-04-01T05:53:50;9.10;99.90
41324;DHT22;27073;51.128;4.220;2023-04-01T05:56:17;9.10;99.90
41324;DHT22;27073;51.128;4.220;2023-04-01T05:58:51;9.10;99.90
41324;DHT22;27073;51.128;4.220;2023-04-01T06:01:18;9.10;99.90
41324;DHT22;27073;51.128;4.220;2023-04-01T06:03:44;9.00;99.90
41324;DHT22;27073;51.128;4.220;2023-04-01T06:06:25;9.00;99.90
41324;DHT22;27073;51.128;4.220;2023-04-01T06:08:56;9.00;99.90
41324;DHT22;27073;51.128;4.220;2023-04-01T06:11:55;9.00;99.90
41324;DHT22;27073;51.128;4.220;2023-04-01T06:35:40;9.00;99.90
41324;DHT22;27073;51.128;4.220;2023-04-01T06:46:51;9.00;99.90
41324;DHT22;27073;51.128;4.220;2023-04-01T06:55:57;9.10;99.90
41324;DHT22;27073;51.128;4.220;2023-04-01T06:58:41;9.00;99.90
41324;DHT22;27073;51.128;4.220;2023-04-01T07:01:24;9.10;99.90
41324;DHT22;27073;51.128;4.220;2023-04-01T07:04:14;9.00;99.90
41324;DHT22;27073;51.128;4.220;2023-04-01T07:07:06;9.00;99.90
41324;DHT22;27073;51.128;4.220;2023-04-01T07:09:45;9.20;99.90
41324;DHT22;27073;51.128;4.220;2023-04-01T07:12:47;9.10;99.90
41324;DHT22;27073;51.128;4.220;2023-04-01T07:15:54;9.10;99.90
41324;DHT22;27073;51.128;4.220;2023-04-01T07:18:29;9.10;99.90
41324;DHT22;27073;51.128;4.220;2023-04-01T07:20:56;9.10;99.90
41324;DHT22;27073;51.128;4.220;2023-04-01T07:23:26;9.10;99.90
41324;DHT22;27073;51.128;4.220;2023-04-01T07:26:21;9.20;99.90
41324;DHT22;27073;51.128;4.220;2023-04-01T07:29:09;9.20;99.90
41324;DHT22;27073;51.128;4.220;2023-04-01T07:40:46;9.30;99.90
41324;DHT22;27073;51.128;4.220;2023-04-01T07:49:11;9.30;99.90
41324;DHT22;27073;51.128;4.220;2023-04-01T08:03:16;9.20;99.90
41324;DHT22;27073;51.128;4.220;2023-04-01T08:05:53;9.20;99.90
41324;DHT22;27073;51.128;4.220;2023-04-01T08:14:30;9.40;99.90
41324;DHT22;27073;51.128;4.220;2023-04-01T08:17:29;9.50;99.90
41324;DHT22;27073;51.128;4.220;2023-04-01T08:20:34;9.40;99.90
41324;DHT22;27073;51.128;4.220;2023-04-01T08:23:11;9.40;99.90
41324;DHT22;27073;51.128;4.220;2023-04-01T08:25:47;9.40;99.90
41324;DHT22;27073;51.128;4.220;2023-04-01T08:28:34;9.40;99.90
41324;DHT22;27073;51.128;4.220;2023-04-01T08:31:14;9.30;99.90
41324;DHT22;27073;51.128;4.220;2023-04-01T08:33:46;9.40;99.90
41324;DHT22;27073;51.128;4.220;2023-04-01T08:36:31;9.50;99.90
41324;DHT22;27073;51.128;4.220;2023-04-01T08:39:20;9.50;99.90
41324;DHT22;27073;51.128;4.220;2023-04-01T08:56:54;9.60;99.90
41324;DHT22;27073;51.128;4.220;2023-04-01T09:27:29;9.70;99.90
41324;DHT22;27073;51.128;4.220;2023-04-01T09:35:46;9.70;99.90
41324;DHT22;27073;51.128;4.220;2023-04-01T09:41:14;10.00;99.90
41324;DHT22;27073;51.128;4.220;2023-04-01T09:44:02;10.00;99.90
41324;DHT22;27073;51.128;4.220;2023-04-01T10:07:46;9.90;99.90
41324;DHT22;27073;51.128;4.220;2023-04-01T10:44:53;9.70;99.90
41324;DHT22;27073;51.128;4.220;2023-04-01T10:56:49;9.70;99.90
41324;DHT22;27073;51.128;4.220;2023-04-01T11:00:16;9.90;99.90
41324;DHT22;27073;51.128;4.220;2023-04-01T11:03:33;9.80;99.90
41324;DHT22;27073;51.128;4.220;2023-04-01T11:29:04;9.80;99.90
41324;DHT22;27073;51.128;4.220;2023-04-01T11:31:58;9.90;99.90
41324;DHT22;27073;51.128;4.220;2023-04-01T11:34:56;10.10;99.90
41324;DHT22;27073;51.128;4.220;2023-04-01T11:37:37;9.90;99.90
41324;DHT22;27073;51.128;4.220;2023-04-01T11:40:52;9.90;99.90
41324;DHT22;27073;51.128;4.220;2023-04-01T11:52:32;9.90;99.90
41324;DHT22;27073;51.128;4.220;2023-04-01T12:11:21;10.00;99.90
41324;DHT22;27073;51.128;4.220;2023-04-01T12:14:16;10.00;99.90
41324;DHT22;27073;51.128;4.220;2023-04-01T12:19:46;10.00;99.90
41324;DHT22;27073;51.128;4.220;2023-04-01T12:22:19;9.90;99.90
41324;DHT22;27073;51.128;4.220;2023-04-01T12:30:30;10.20;99.90
41324;DHT22;27073;51.128;4.220;2023-04-01T12:36:04;10.20;99.90
41324;DHT22;27073;51.128;4.220;2023-04-01T12:44:39;9.80;99.90
41324;DHT22;27073;51.128;4.220;2023-04-01T12:47:32;9.90;99.90
41324;DHT22;27073;51.128;4.220;2023-04-01T12:50:31;9.80;99.90
41324;DHT22;27073;51.128;4.220;2023-04-01T12:55:48;10.10;99.90
41324;DHT22;27073;51.128;4.220;2023-04-01T13:04:33;10.10;99.90
41324;DHT22;27073;51.128;4.220;2023-04-01T13:10:10;10.00;99.90
41324;DHT22;27073;51.128;4.220;2023-04-01T13:15:45;10.00;99.90
41324;DHT22;27073;51.128;4.220;2023-04-01T13:44:49;10.50;99.90
41324;DHT22;27073;51.128;4.220;2023-04-01T13:52:39;10.50;99.90
41324;DHT22;27073;51.128;4.220;2023-04-01T13:55:26;10.40;99.90
41324;DHT22;27073;51.128;4.220;2023-04-01T14:06:56;10.20;99.90
41324;DHT22;27073;51.128;4.220;2023-04-01T14:12:24;10.20;99.90
41324;DHT22;27073;51.128;4.220;2023-04-01T14:44:05;10.20;99.90
41324;DHT22;27073;51.128;4.220;2023-04-01T14:49:30;10.20;99.90
41324;DHT22;27073;51.128;4.220;2023-04-01T14:52:11;10.20;99.90
41324;DHT22;27073;51.128;4.220;2023-04-01T14:54:41;10.30;99.90
41324;DHT22;27073;51.128;4.220;2023-04-01T14:59:47;10.40;99.90
41324;DHT22;27073;51.128;4.220;2023-04-01T15:04:58;10.10;99.90
41324;DHT22;27073;51.128;4.220;2023-04-01T15:13:12;10.00;99.90
41324;DHT22;27073;51.128;4.220;2023-04-01T15:32:19;10.10;99.90
41324;DHT22;27073;51.128;4.220;2023-04-01T15:34:50;10.10;99.90
41324;DHT22;27073;51.128;4.220;2023-04-01T15:43:36;9.90;99.90
41324;DHT22;27073;51.128;4.220;2023-04-01T16:13:46;9.60;99.90
41324;DHT22;27073;51.128;4.220;2023-04-01T16:22:00;9.50;99.90
41324;DHT22;27073;51.128;4.220;2023-04-01T16:24:35;9.60;99.90
41324;DHT22;27073;51.128;4.220;2023-04-01T16:30:00;9.60;99.90
41324;DHT22;27073;51.128;4.220;2023-04-01T16:36:01;9.60;99.90
41324;DHT22;27073;51.128;4.220;2023-04-01T16:38:18;9.60;99.90
41324;DHT22;27073;51.128;4.220;2023-04-01T16:44:18;9.70;99.90
41324;DHT22;27073;51.128;4.220;2023-04-01T16:46:52;9.70;99.90
41324;DHT22;27073;51.128;4.220;2023-04-01T16:49:33;9.60;99.90
41324;DHT22;27073;51.128;4.220;2023-04-01T16:54:57;9.80;99.90
41324;DHT22;27073;51.128;4.220;2023-04-01T16:57:42;9.90;99.90
41324;DHT22;27073;51.128;4.220;2023-04-01T17:06:40;9.70;99.90
41324;DHT22;27073;51.128;4.220;2023-04-01T17:08:56;9.80;99.90
41324;DHT22;27073;51.128;4.220;2023-04-01T17:11:56;9.90;99.90
41324;DHT22;27073;51.128;4.220;2023-04-01T17:14:37;9.90;99.90
41324;DHT22;27073;51.128;4.220;2023-04-01T17:20:40;9.90;99.90
41324;DHT22;27073;51.128;4.220;2023-04-01T17:25:49;9.90;99.90
41324;DHT22;27073;51.128;4.220;2023-04-01T17:31:02;9.90;99.90
41324;DHT22;27073;51.128;4.220;2023-04-01T17:33:52;9.90;99.90
41324;DHT22;27073;51.128;4.220;2023-04-01T17:42:34;9.90;99.90
41324;DHT22;27073;51.128;4.220;2023-04-01T17:47:58;9.70;99.90
41324;DHT22;27073;51.128;4.220;2023-04-01T17:50:59;9.60;99.90
41324;DHT22;27073;51.128;4.220;2023-04-01T17:56:41;9.60;99.90
41324;DHT22;27073;51.128;4.220;2023-04-01T17:59:39;9.60;99.90
41324;DHT22;27073;51.128;4.220;2023-04-01T18:02:20;9.60;99.90
41324;DHT22;27073;51.128;4.220;2023-04-01T18:04:54;9.60;99.90
41324;DHT22;27073;51.128;4.220;2023-04-01T18:24:02;9.40;99.90
41324;DHT22;27073;51.128;4.220;2023-04-01T18:26:33;9.50;99.90
41324;DHT22;27073;51.128;4.220;2023-04-01T18:29:12;9.30;99.90
41324;DHT22;27073;51.128;4.220;2023-04-01T18:31:43;9.30;99.90
41324;DHT22;27073;51.128;4.220;2023-04-01T18:37:39;9.30;99.90
41324;DHT22;27073;51.128;4.220;2023-04-01T18:40:16;9.30;99.90
41324;DHT22;27073;51.128;4.220;2023-04-01T18:43:05;9.20;99.90
41324;DHT22;27073;51.128;4.220;2023-04-01T18:48:51;9.30;99.90
41324;DHT22;27073;51.128;4.220;2023-04-01T18:51:24;9.30;99.90
41324;DHT22;27073;51.128;4.220;2023-04-01T18:54:02;9.30;99.90
41324;DHT22;27073;51.128;4.220;2023-04-01T18:56:34;9.30;99.90
41324;DHT22;27073;51.128;4.220;2023-04-01T18:59:21;9.20;99.90
41324;DHT22;27073;51.128;4.220;2023-04-01T19:04:41;9.30;99.90
41324;DHT22;27073;51.128;4.220;2023-04-01T19:07:40;9.30;99.90
41324;DHT22;27073;51.128;4.220;2023-04-01T19:11:17;9.30;99.90
41324;DHT22;27073;51.128;4.220;2023-04-01T19:13:11;9.30;99.90
41324;DHT22;27073;51.128;4.220;2023-04-01T19:15:41;9.30;99.90
41324;DHT22;27073;51.128;4.220;2023-04-01T19:20:56;9.30;99.90
41324;DHT22;27073;51.128;4.220;2023-04-01T19:23:33;9.30;99.90
41324;DHT22;27073;51.128;4.220;2023-04-01T19:26:09;9.30;99.90
41324;DHT22;27073;51.128;4.220;2023-04-01T19:36:58;9.40;99.90
41324;DHT22;27073;51.128;4.220;2023-04-01T19:42:49;9.60;99.90
41324;DHT22;27073;51.128;4.220;2023-04-01T19:50:52;9.50;99.90
41324;DHT22;27073;51.128;4.220;2023-04-01T19:53:31;9.50;99.90
41324;DHT22;27073;51.128;4.220;2023-04-01T19:56:14;9.60;99.90
41324;DHT22;27073;51.128;4.220;2023-04-01T19:59:27;9.60;99.90
41324;DHT22;27073;51.128;4.220;2023-04-01T20:01:51;9.70;99.90
41324;DHT22;27073;51.128;4.220;2023-04-01T20:04:33;9.60;99.90
41324;DHT22;27073;51.128;4.220;2023-04-01T20:07:24;9.60;99.90
41324;DHT22;27073;51.128;4.220;2023-04-01T20:18:02;9.70;99.90
41324;DHT22;27073;51.128;4.220;2023-04-01T20:20:30;9.80;99.90
41324;DHT22;27073;51.128;4.220;2023-04-01T20:23:06;9.80;99.90
41324;DHT22;27073;51.128;4.220;2023-04-01T20:25:55;9.80;99.90
41324;DHT22;27073;51.128;4.220;2023-04-01T20:28:48;9.80;
41324;DHT22;27073;51.128;4.220;2023-04-01T20:31:33;9.80;99.90
41324;DHT22;27073;51.128;4.220;2023-04-01T20:42:27;10.00;99.90
41324;DHT22;27073;51.128;4.220;2023-04-01T20:53:15;9.90;99.90
41324;DHT22;27073;51.128;4.220;2023-04-01T20:55:57;9.90;99.90
41324;DHT22;27073;51.128;4.220;2023-04-01T20:58:39;10.10;99.90
41324;DHT22;27073;51.128;4.220;2023-04-01T21:15:11;10.00;99.90
41324;DHT22;27073;51.128;4.220;2023-04-01T21:17:53;10.10;99.90
41324;DHT22;27073;51.128;4.220;2023-04-01T21:20:47;10.20;99.90
41324;DHT22;27073;51.128;4.220;2023-04-01T21:26:18;10.20;99.90
41324;DHT22;27073;51.128;4.220;2023-04-01T21:39:25;10.30;99.90
41324;DHT22;27073;51.128;4.220;2023-04-01T21:44:50;10.50;99.90
41324;DHT22;27073;51.128;4.220;2023-04-01T21:47:55;10.40;99.90
41324;DHT22;27073;51.128;4.220;2023-04-01T22:02:57;10.10;99.90
41324;DHT22;27073;51.128;4.220;2023-04-01T22:05:02;9.90;99.90
41324;DHT22;27073;51.128;4.220;2023-04-01T22:12:43;10.10;99.90
41324;DHT22;27073;51.128;4.220;2023-04-01T22:20:28;10.00;99.90
41324;DHT22;27073;51.128;4.220;2023-04-01T22:23:19;10.00;99.90
41324;DHT22;27073;51.128;4.220;2023-04-01T22:26:07;9.90;99.90
41324;DHT22;27073;51.128;4.220;2023-04-01T22:29:09;10.00;99.90
41324;DHT22;27073;51.128;4.220;2023-04-01T22:34:49;10.10;99.90
41324;DHT22;27073;51.128;4.220;2023-04-01T22:37:40;10.10;99.90
41324;DHT22;27073;51.128;4.220;2023-04-01T22:40:29;9.90;99.90
41324;DHT22;27073;51.128;4.220;2023-04-01T22:43:08;9.90;99.90
41324;DHT22;27073;51.128;4.220;2023-04-01T22:45:58;10.10;99.90
41324;DHT22;27073;51.128;4.220;2023-04-01T22:51:24;9.90;99.90
41324;DHT22;27073;51.128;4.220;2023-04-01T22:54:02;9.90;99.90
41324;DHT22;27073;51.128;4.220;2023-04-01T22:56:40;10.00;99.90
41324;DHT22;27073;51.128;4.220;2023-04-01T23:02:18;10.10;99.90
41324;DHT22;27073;51.128;4.220;2023-04-01T23:04:53;9.90;99.90
41324;DHT22;27073;51.128;4.220;2023-04-01T23:13:04;10.10;99.90
41324;DHT22;27073;51.128;4.220;2023-04-01T23:15:30;10.10;99.90
41324;DHT22;27073;51.128;4.220;2023-04-01T23:18:05;10.10;99.90
41324;DHT22;27073;51.128;4.220;2023-04-01T23:23:39;10.00;99.90
41324;DHT22;27073;51.128;4.220;2023-04-01T23:28:50;9.90;99.90
41324;DHT22;27073;51.128;4.220;2023-04-01T23:31:38;10.00;99.90
41324;DHT22;27073;51.128;4.220;2023-04-01T23:36:42;9.90;99.90
41324;DHT22;27073;51.128;4.220;2023-04-01T23:39:23;9.80;99.90
41324;DHT22;27073;51.128;4.220;2023-04-01T23:41:53;9.90;99.90
41324;DHT22;27073;51.128;4.220;2023-04-01T23:44:20;9.90;99.90
41324;DHT22;27073;51.128;4.220;2023-04-01T23:46:47;9.90;99.90
41324;DHT22;27073;51.128;4.220;2023-04-01T23:49:19;10.00;99.90
41324;DHT22;27073;51.128;4.220;2023-04-01T23:51:53;9.90;99.90
41324;DHT22;27073;51.128;4.220;2023-04-01T23:54:33;9.90;99.90
41324;DHT22;27073;51.128;4.220;2023-04-01T23:57:04;9.80;99.90
41324;DHT22;27073;51.128;4.220;2023-04-01T23:59:36;9.80;99.90
